Time;durP1;ratioP1;P1;durP2;ratioP2;P2;SDS_P1;SDS_P2;PMS_P1;PMS_P2;Temp;Humidity;BMP_temperature;BMP_pressure;BME280_temperature;BME280_humidity;BME280_pressure;Samples;Min_cycle;Max_cycle;Signal;HPM_P1;HPM_P2
2022/03/02 00:00:32;;;;;;;;;;;;;;;;;;5012538;28;20354;-59
2022/03/02 00:02:57;;;;;;;;;;;;;;;;;;5015831;28;19957;-60
2022/03/02 00:05:24;;;;;;;;;;;;;;;;;;5016412;28;19960;-59
2022/03/02 00:07:49;;;;;;;;;;;;;;;;;;5019733;28;19909;-59
2022/03/02 00:10:14;;;;;;;;;;;;;;;;;;5015242;28;19913;-59
2022/03/02 00:12:39;;;;;;;;;;;;;;;;;;5035548;28;20357;-59
2022/03/02 00:15:05;;;;;;;;;;;;;;;;;;5032029;28;20349;-60
2022/03/02 00:17:30;;;;;;;;;;;;;;;;;;5015665;28;19960;-59
2022/03/02 00:19:55;;;;;;;;;;;;;;;;;;4997977;28;19946;-59
2022/03/02 00:22:20;;;;;;;;;;;;;;;;;;4998158;28;19953;-59
2022/03/02 00:24:50;;;;;;;;;;;;;;;;;;5015852;28;20313;-59
2022/03/02 00:27:16;;;;;;;;;;;;;;;;;;5015106;28;19909;-59
2022/03/02 00:29:41;;;;;;;;;;;;;;;;;;5015458;28;19906;-58
2022/03/02 00:32:07;;;;;;;;;;;;;;;;;;4997679;28;19913;-58
2022/03/02 00:34:32;;;;;;;;;;;;;;;;;;5015230;28;19905;-58
2022/03/02 00:36:57;;;;;;;;;;;;;;;;;;5030144;28;19909;-58
2022/03/02 00:39:22;;;;;;;;;;;;;;;;;;5016858;28;20410;-58
2022/03/02 00:41:48;;;;;;;;;;;;;;;;;;5018128;28;19909;-59
2022/03/02 00:44:13;;;;;;;;;;;;;;;;;;5034903;28;20475;-59
2022/03/02 00:46:39;;;;;;;;;;;;;;;;;;5001310;28;19927;-58
2022/03/02 00:49:04;;;;;;;;;;;;;;;;;;5018155;28;19913;-59
2022/03/02 00:51:29;;;;;;;;;;;;;;;;;;5034837;28;19909;-59
2022/03/02 00:53:54;;;;;;;;;;;;;;;;;;5034893;28;19905;-59
2022/03/02 00:56:19;;;;;;;;;;;;;;;;;;5034439;28;19932;-59
2022/03/02 00:58:45;;;;;;;;;;;;;;;;;;5034574;28;19919;-59
2022/03/02 01:01:10;;;;;;;;;;;;;;;;;;5034586;28;20365;-60
2022/03/02 01:03:35;;;;;;;;;;;;;;;;;;5033928;28;20334;-60
2022/03/02 01:06:01;;;;;;;;;;;;;;;;;;5034361;28;19974;-59
2022/03/02 01:08:26;;;;;;;;;;;;;;;;;;5026127;28;19910;-59
2022/03/02 01:10:51;;;;;;;;;;;;;;;;;;5014652;28;19909;-61
2022/03/02 01:13:16;;;;;;;;;;;;;;;;;;5015005;28;19917;-60
2022/03/02 01:15:41;;;;;;;;;;;;;;;;;;4996866;28;19913;-59
2022/03/02 01:18:07;;;;;;;;;;;;;;;;;;4997586;28;19913;-60
2022/03/02 01:20:32;;;;;;;;;;;;;;;;;;5014683;28;19916;-59
2022/03/02 01:22:57;;;;;;;;;;;;;;;;;;5014393;28;19909;-59
2022/03/02 01:25:23;;;;;;;;;;;;;;;;;;5014770;28;19916;-59
2022/03/02 01:27:48;;;;;;;;;;;;;;;;;;5014471;28;19912;-58
2022/03/02 01:30:14;;;;;;;;;;;;;;;;;;5014217;28;19919;-59
2022/03/02 01:32:39;;;;;;;;;;;;;;;;;;5014649;28;19940;-59
2022/03/02 01:35:04;;;;;;;;;;;;;;;;;;4997166;28;20000;-58
2022/03/02 01:37:30;;;;;;;;;;;;;;;;;;4997471;28;19916;-59
2022/03/02 01:39:55;;;;;;;;;;;;;;;;;;5013804;28;19913;-59
2022/03/02 01:42:20;;;;;;;;;;;;;;;;;;5014125;28;20305;-59
2022/03/02 01:44:45;;;;;;;;;;;;;;;;;;5008131;28;20322;-59
2022/03/02 01:47:11;;;;;;;;;;;;;;;;;;5033956;28;19962;-58
2022/03/02 01:49:36;;;;;;;;;;;;;;;;;;5034167;28;19909;-58
2022/03/02 01:52:01;;;;;;;;;;;;;;;;;;5033524;28;20007;-58
2022/03/02 01:54:26;;;;;;;;;;;;;;;;;;5034018;28;19909;-58
2022/03/02 01:56:52;;;;;;;;;;;;;;;;;;5016340;28;19988;-59
2022/03/02 01:59:17;;;;;;;;;;;;;;;;;;5033409;28;19917;-59
2022/03/02 02:01:42;;;;;;;;;;;;;;;;;;5034320;28;19992;-59
2022/03/02 02:04:07;;;;;;;;;;;;;;;;;;5033286;28;19940;-58
2022/03/02 02:06:33;;;;;;;;;;;;;;;;;;5033294;28;20304;-59
2022/03/02 02:08:58;;;;;;;;;;;;;;;;;;5033611;28;19909;-59
2022/03/02 02:11:23;;;;;;;;;;;;;;;;;;5033264;28;20250;-61
2022/03/02 02:13:49;;;;;;;;;;;;;;;;;;5034243;28;20004;-58
2022/03/02 02:16:16;;;;;;;;;;;;;;;;;;5037870;28;19917;-59
2022/03/02 02:18:41;;;;;;;;;;;;;;;;;;5019817;28;19975;-59
2022/03/02 02:21:07;;;;;;;;;;;;;;;;;;5020151;28;19913;-59
2022/03/02 02:23:32;;;;;;;;;;;;;;;;;;5037105;28;20255;-59
2022/03/02 02:25:57;;;;;;;;;;;;;;;;;;5014349;28;19912;-59
2022/03/02 02:28:23;;;;;;;;;;;;;;;;;;5018153;28;19909;-58
2022/03/02 02:30:48;;;;;;;;;;;;;;;;;;5017218;28;19917;-59
2022/03/02 02:33:13;;;;;;;;;;;;;;;;;;5018455;28;19906;-58
2022/03/02 02:35:39;;;;;;;;;;;;;;;;;;5000257;28;19909;-58
2022/03/02 02:38:04;;;;;;;;;;;;;;;;;;5017971;28;19952;-58
2022/03/02 02:40:29;;;;;;;;;;;;;;;;;;5017066;28;20033;-58
2022/03/02 02:42:54;;;;;;;;;;;;;;;;;;5017264;28;20261;-59
2022/03/02 02:45:20;;;;;;;;;;;;;;;;;;5015619;28;19910;-62
2022/03/02 02:47:45;;;;;;;;;;;;;;;;;;4999794;28;19956;-58
2022/03/02 02:50:10;;;;;;;;;;;;;;;;;;4999926;28;19910;-58
2022/03/02 02:52:35;;;;;;;;;;;;;;;;;;5017016;28;19961;-58
2022/03/02 02:55:01;;;;;;;;;;;;;;;;;;5015026;28;20001;-59
2022/03/02 02:57:26;;;;;;;;;;;;;;;;;;5015083;28;19909;-58
2022/03/02 02:59:51;;;;;;;;;;;;;;;;;;5016748;28;20382;-59
2022/03/02 03:02:16;;;;;;;;;;;;;;;;;;5017345;28;19905;-58
2022/03/02 03:04:42;;;;;;;;;;;;;;;;;;5016852;28;19936;-58
2022/03/02 03:07:07;;;;;;;;;;;;;;;;;;5016580;28;19959;-59
2022/03/02 03:09:33;;;;;;;;;;;;;;;;;;5017229;28;19932;-58
2022/03/02 03:11:58;;;;;;;;;;;;;;;;;;5016769;28;20011;-59
2022/03/02 03:14:23;;;;;;;;;;;;;;;;;;5017155;28;19960;-59
2022/03/02 03:16:48;;;;;;;;;;;;;;;;;;5016459;28;20005;-59
2022/03/02 03:19:13;;;;;;;;;;;;;;;;;;4999121;28;19964;-59
2022/03/02 03:21:39;;;;;;;;;;;;;;;;;;5017273;28;19941;-59
2022/03/02 03:24:04;;;;;;;;;;;;;;;;;;5016992;28;20008;-59
2022/03/02 03:26:30;;;;;;;;;;;;;;;;;;5016747;28;19909;-59
2022/03/02 03:28:55;;;;;;;;;;;;;;;;;;5016210;28;20330;-59
2022/03/02 03:31:20;;;;;;;;;;;;;;;;;;5016426;28;20371;-60
2022/03/02 03:33:45;;;;;;;;;;;;;;;;;;5016802;28;19916;-59
2022/03/02 03:36:11;;;;;;;;;;;;;;;;;;5016528;28;19909;-59
2022/03/02 03:38:36;;;;;;;;;;;;;;;;;;4999172;28;19920;-59
2022/03/02 03:41:01;;;;;;;;;;;;;;;;;;5016280;28;19936;-59
2022/03/02 03:43:26;;;;;;;;;;;;;;;;;;5016531;28;19910;-58
2022/03/02 03:45:52;;;;;;;;;;;;;;;;;;5016318;28;19913;-59
2022/03/02 03:48:17;;;;;;;;;;;;;;;;;;4998469;28;20358;-60
2022/03/02 03:50:43;;;;;;;;;;;;;;;;;;5016256;28;19913;-59
2022/03/02 03:53:10;;;;;;;;;;;;;;;;;;5016450;28;19976;-59
2022/03/02 03:55:35;;;;;;;;;;;;;;;;;;4999183;28;19909;-61
2022/03/02 03:58:00;;;;;;;;;;;;;;;;;;4999080;28;19916;-58
2022/03/02 04:00:25;;;;;;;;;;;;;;;;;;5015914;28;20356;-59
2022/03/02 04:02:51;;;;;;;;;;;;;;;;;;5016005;28;20345;-59
2022/03/02 04:05:16;;;;;;;;;;;;;;;;;;5015798;28;20324;-59
2022/03/02 04:07:41;;;;;;;;;;;;;;;;;;5015953;28;19905;-59
2022/03/02 04:10:07;;;;;;;;;;;;;;;;;;5015841;28;19920;-58
2022/03/02 04:12:32;;;;;;;;;;;;;;;;;;5015634;28;19909;-58
2022/03/02 04:14:57;;;;;;;;;;;;;;;;;;5015607;28;19913;-58
2022/03/02 04:17:23;;;;;;;;;;;;;;;;;;5015587;28;19909;-58
2022/03/02 04:19:48;;;;;;;;;;;;;;;;;;5030671;28;19920;-58
2022/03/02 04:22:13;;;;;;;;;;;;;;;;;;5015958;28;20004;-58
2022/03/02 04:24:38;;;;;;;;;;;;;;;;;;5015501;28;20008;-58
2022/03/02 04:27:03;;;;;;;;;;;;;;;;;;5015528;28;20357;-58
2022/03/02 04:29:29;;;;;;;;;;;;;;;;;;5015310;28;19905;-58
2022/03/02 04:31:54;;;;;;;;;;;;;;;;;;5015037;28;20031;-58
2022/03/02 04:34:19;;;;;;;;;;;;;;;;;;5021520;28;20445;-58
2022/03/02 04:36:44;;;;;;;;;;;;;;;;;;5031881;28;19913;-58
2022/03/02 04:39:10;;;;;;;;;;;;;;;;;;5034901;28;20416;-59
2022/03/02 04:41:35;;;;;;;;;;;;;;;;;;5034608;28;19913;-59
2022/03/02 04:44:00;;;;;;;;;;;;;;;;;;5034947;28;19960;-59
2022/03/02 04:46:25;;;;;;;;;;;;;;;;;;5035219;28;19909;-59
2022/03/02 04:48:50;;;;;;;;;;;;;;;;;;5035007;28;19909;-59
2022/03/02 04:51:16;;;;;;;;;;;;;;;;;;5017496;28;19963;-58
2022/03/02 04:53:41;;;;;;;;;;;;;;;;;;5034361;28;20259;-59
2022/03/02 04:56:06;;;;;;;;;;;;;;;;;;5031635;28;21240;-59
2022/03/02 04:58:32;;;;;;;;;;;;;;;;;;5034873;28;19909;-59
2022/03/02 05:00:57;;;;;;;;;;;;;;;;;;5017024;28;20015;-59
2022/03/02 05:03:22;;;;;;;;;;;;;;;;;;5033408;28;20011;-59
2022/03/02 05:05:47;;;;;;;;;;;;;;;;;;5034586;28;19909;-63
2022/03/02 05:08:13;;;;;;;;;;;;;;;;;;5007449;28;19909;-58
2022/03/02 05:10:38;;;;;;;;;;;;;;;;;;5015234;28;19964;-58
2022/03/02 05:13:03;;;;;;;;;;;;;;;;;;5014682;28;19948;-58
2022/03/02 05:15:28;;;;;;;;;;;;;;;;;;5015259;28;19967;-58
2022/03/02 05:17:53;;;;;;;;;;;;;;;;;;4996717;28;20248;-58
2022/03/02 05:20:19;;;;;;;;;;;;;;;;;;5014392;28;20365;-58
2022/03/02 05:22:44;;;;;;;;;;;;;;;;;;5023106;28;19963;-58
2022/03/02 05:25:09;;;;;;;;;;;;;;;;;;5032921;28;20401;-58
2022/03/02 05:27:35;;;;;;;;;;;;;;;;;;5034155;28;19919;-59
2022/03/02 05:30:00;;;;;;;;;;;;;;;;;;5033714;28;19963;-59
2022/03/02 05:32:25;;;;;;;;;;;;;;;;;;5031607;28;19909;-58
2022/03/02 05:34:50;;;;;;;;;;;;;;;;;;5034430;28;19909;-59
2022/03/02 05:37:16;;;;;;;;;;;;;;;;;;5033739;28;19909;-58
2022/03/02 05:39:41;;;;;;;;;;;;;;;;;;5034279;28;19964;-59
2022/03/02 05:42:06;;;;;;;;;;;;;;;;;;5034197;28;19913;-58
2022/03/02 05:44:32;;;;;;;;;;;;;;;;;;5033916;28;19916;-58
2022/03/02 05:46:57;;;;;;;;;;;;;;;;;;5033965;28;19909;-59
2022/03/02 05:49:22;;;;;;;;;;;;;;;;;;5010873;28;19909;-59
2022/03/02 05:51:47;;;;;;;;;;;;;;;;;;5034825;28;19972;-59
2022/03/02 05:54:13;;;;;;;;;;;;;;;;;;5033506;28;20276;-62
2022/03/02 05:56:38;;;;;;;;;;;;;;;;;;5033983;28;20003;-58
2022/03/02 05:59:03;;;;;;;;;;;;;;;;;;5033995;28;20354;-58
2022/03/02 06:01:29;;;;;;;;;;;;;;;;;;5015879;28;19948;-58
2022/03/02 06:03:54;;;;;;;;;;;;;;;;;;5016109;28;19909;-58
2022/03/02 06:06:20;;;;;;;;;;;;;;;;;;5016588;28;20257;-59
2022/03/02 06:08:45;;;;;;;;;;;;;;;;;;5033958;28;19916;-58
2022/03/02 06:11:10;;;;;;;;;;;;;;;;;;5034245;28;19909;-58
2022/03/02 06:13:35;;;;;;;;;;;;;;;;;;5033914;28;19910;-58
2022/03/02 06:16:01;;;;;;;;;;;;;;;;;;5034622;28;20314;-58
2022/03/02 06:18:26;;;;;;;;;;;;;;;;;;5006910;28;19910;-59
2022/03/02 06:20:52;;;;;;;;;;;;;;;;;;5013864;28;19954;-58
2022/03/02 06:23:18;;;;;;;;;;;;;;;;;;5014040;28;19917;-58
2022/03/02 06:25:43;;;;;;;;;;;;;;;;;;5013783;28;19909;-58
2022/03/02 06:28:09;;;;;;;;;;;;;;;;;;4996533;28;19909;-58
2022/03/02 06:30:34;;;;;;;;;;;;;;;;;;5014087;28;20298;-58
2022/03/02 06:32:59;;;;;;;;;;;;;;;;;;5014048;28;19909;-58
2022/03/02 06:35:24;;;;;;;;;;;;;;;;;;5013972;28;19909;-58
2022/03/02 06:37:50;;;;;;;;;;;;;;;;;;4996540;28;19920;-58
2022/03/02 06:40:15;;;;;;;;;;;;;;;;;;5011673;28;19928;-58
2022/03/02 06:42:40;;;;;;;;;;;;;;;;;;4996727;28;19920;-58
2022/03/02 06:45:05;;;;;;;;;;;;;;;;;;4996747;28;19909;-58
2022/03/02 06:47:30;;;;;;;;;;;;;;;;;;5014281;28;19910;-58
2022/03/02 06:49:56;;;;;;;;;;;;;;;;;;5013623;28;19909;-58
2022/03/02 06:52:21;;;;;;;;;;;;;;;;;;5014190;28;19960;-58
2022/03/02 06:54:46;;;;;;;;;;;;;;;;;;4996719;28;19905;-58
2022/03/02 06:57:14;;;;;;;;;;;;;;;;;;5013764;28;19961;-53
2022/03/02 06:59:39;;;;;;;;;;;;;;;;;;5013408;28;19924;-57
2022/03/02 07:02:05;;;;;;;;;;;;;;;;;;5015953;28;19909;-58
2022/03/02 07:04:30;;;;;;;;;;;;;;;;;;5017686;28;19910;-58
2022/03/02 07:06:55;;;;;;;;;;;;;;;;;;5017109;28;19913;-58
2022/03/02 07:09:21;;;;;;;;;;;;;;;;;;5017041;28;20286;-58
2022/03/02 07:11:47;;;;;;;;;;;;;;;;;;5016972;28;20278;-57
2022/03/02 07:14:15;;;;;;;;;;;;;;;;;;5016875;28;19910;-57
2022/03/02 07:16:40;;;;;;;;;;;;;;;;;;5016831;28;19905;-57
2022/03/02 07:19:05;;;;;;;;;;;;;;;;;;5016679;28;20239;-58
2022/03/02 07:21:30;;;;;;;;;;;;;;;;;;5017328;28;20342;-58
2022/03/02 07:23:56;;;;;;;;;;;;;;;;;;5017003;28;19963;-57
2022/03/02 07:26:21;;;;;;;;;;;;;;;;;;5014688;28;20247;-58
2022/03/02 07:28:47;;;;;;;;;;;;;;;;;;5016675;28;19912;-57
2022/03/02 07:31:12;;;;;;;;;;;;;;;;;;5016554;28;19973;-58
2022/03/02 07:33:37;;;;;;;;;;;;;;;;;;5015647;28;19940;-57
2022/03/02 07:36:02;;;;;;;;;;;;;;;;;;5016569;28;20361;-58
2022/03/02 07:38:28;;;;;;;;;;;;;;;;;;5014446;28;19916;-58
2022/03/02 07:40:53;;;;;;;;;;;;;;;;;;5016695;28;19992;-57
2022/03/02 07:43:18;;;;;;;;;;;;;;;;;;4999983;28;19905;-57
2022/03/02 07:45:44;;;;;;;;;;;;;;;;;;5016629;28;19997;-57
2022/03/02 07:48:10;;;;;;;;;;;;;;;;;;4998225;28;19909;-58
2022/03/02 07:50:35;;;;;;;;;;;;;;;;;;5036073;28;19913;-58
2022/03/02 07:53:00;;;;;;;;;;;;;;;;;;5036307;28;20345;-59
2022/03/02 07:55:25;;;;;;;;;;;;;;;;;;5035990;28;20333;-57
2022/03/02 07:57:51;;;;;;;;;;;;;;;;;;5026657;28;20336;-58
2022/03/02 08:00:16;;;;;;;;;;;;;;;;;;5032379;28;20334;-56
2022/03/02 08:02:41;;;;;;;;;;;;;;;;;;5036396;28;20335;-57
2022/03/02 08:05:07;;;;;;;;;;;;;;;;;;5036789;28;19913;-58
2022/03/02 08:07:32;;;;;;;;;;;;;;;;;;5018641;28;20270;-58
2022/03/02 08:09:57;;;;;;;;;;;;;;;;;;5036158;28;19915;-58
2022/03/02 08:12:23;;;;;;;;;;;;;;;;;;5034903;28;19905;-58
2022/03/02 08:14:49;;;;;;;;;;;;;;;;;;5035405;28;19956;-60
2022/03/02 08:17:14;;;;;;;;;;;;;;;;;;5018542;28;20245;-58
2022/03/02 08:19:39;;;;;;;;;;;;;;;;;;5017768;28;19913;-57
2022/03/02 08:22:04;;;;;;;;;;;;;;;;;;5035780;28;19917;-58
2022/03/02 08:24:30;;;;;;;;;;;;;;;;;;5035729;28;19909;-56
2022/03/02 08:26:55;;;;;;;;;;;;;;;;;;5035651;28;19913;-57
2022/03/02 08:29:20;;;;;;;;;;;;;;;;;;5035527;28;19913;-57
2022/03/02 08:31:45;;;;;;;;;;;;;;;;;;5035769;28;19968;-57
2022/03/02 08:34:11;;;;;;;;;;;;;;;;;;5034661;28;19955;-58
2022/03/02 08:36:36;;;;;;;;;;;;;;;;;;5036040;28;19909;-58
2022/03/02 08:39:01;;;;;;;;;;;;;;;;;;5035317;28;19909;-57
2022/03/02 08:41:27;;;;;;;;;;;;;;;;;;5035406;28;19913;-58
2022/03/02 08:43:52;;;;;;;;;;;;;;;;;;5035046;28;19909;-57
2022/03/02 08:46:17;;;;;;;;;;;;;;;;;;5033872;28;19932;-57
2022/03/02 08:48:43;;;;;;;;;;;;;;;;;;5026889;28;19910;-57
2022/03/02 08:51:08;;;;;;;;;;;;;;;;;;5015966;28;19909;-56
2022/03/02 08:53:33;;;;;;;;;;;;;;;;;;5015394;28;20274;-56
2022/03/02 08:55:58;;;;;;;;;;;;;;;;;;5015381;28;19929;-57
2022/03/02 08:58:23;;;;;;;;;;;;;;;;;;5014767;28;20025;-57
2022/03/02 09:00:49;;;;;;;;;;;;;;;;;;5012559;28;19960;-57
2022/03/02 09:03:14;;;;;;;;;;;;;;;;;;4997779;28;19905;-57
2022/03/02 09:05:39;;;;;;;;;;;;;;;;;;5031504;28;20260;-57
2022/03/02 09:08:04;;;;;;;;;;;;;;;;;;5017446;28;19952;-57
2022/03/02 09:10:30;;;;;;;;;;;;;;;;;;5034878;28;20324;-56
2022/03/02 09:12:56;;;;;;;;;;;;;;;;;;5034661;28;19963;-57
2022/03/02 09:15:21;;;;;;;;;;;;;;;;;;5034996;28;20362;-57
2022/03/02 09:17:47;;;;;;;;;;;;;;;;;;5034313;28;19959;-57
2022/03/02 09:20:12;;;;;;;;;;;;;;;;;;5030737;28;19956;-58
2022/03/02 09:22:37;;;;;;;;;;;;;;;;;;4980983;28;20012;-57
2022/03/02 09:25:02;;;;;;;;;;;;;;;;;;5014915;28;19956;-57
2022/03/02 09:27:28;;;;;;;;;;;;;;;;;;5015068;28;19905;-58
2022/03/02 09:29:53;;;;;;;;;;;;;;;;;;5015024;28;20261;-57
2022/03/02 09:32:18;;;;;;;;;;;;;;;;;;4997373;28;20262;-58
2022/03/02 09:34:45;;;;;;;;;;;;;;;;;;5014628;28;20007;-57
2022/03/02 09:37:10;;;;;;;;;;;;;;;;;;5014296;28;20274;-57
2022/03/02 09:39:35;;;;;;;;;;;;;;;;;;5014187;28;19918;-58
2022/03/02 09:42:01;;;;;;;;;;;;;;;;;;4996615;28;19920;-58
2022/03/02 09:44:26;;;;;;;;;;;;;;;;;;5014211;28;19915;-58
2022/03/02 09:46:55;;;;;;;;;;;;;;;;;;5014483;28;19910;-58
2022/03/02 09:49:20;;;;;;;;;;;;;;;;;;4996954;28;19947;-60
2022/03/02 09:51:45;;;;;;;;;;;;;;;;;;5012183;28;19949;-59
2022/03/02 09:54:10;;;;;;;;;;;;;;;;;;4996709;28;20372;-58
2022/03/02 09:56:36;;;;;;;;;;;;;;;;;;5014061;28;19917;-58
2022/03/02 09:59:01;;;;;;;;;;;;;;;;;;5014420;28;19910;-60
2022/03/02 10:01:26;;;;;;;;;;;;;;;;;;5014324;28;20261;-57
2022/03/02 10:03:52;;;;;;;;;;;;;;;;;;4996493;28;20266;-58
2022/03/02 10:06:17;;;;;;;;;;;;;;;;;;5013939;28;19913;-58
2022/03/02 10:08:42;;;;;;;;;;;;;;;;;;5013934;28;19948;-58
2022/03/02 10:11:08;;;;;;;;;;;;;;;;;;5014083;28;19913;-58
2022/03/02 10:13:33;;;;;;;;;;;;;;;;;;5014571;28;19914;-58
2022/03/02 10:15:58;;;;;;;;;;;;;;;;;;5015016;28;19921;-58
2022/03/02 10:18:23;;;;;;;;;;;;;;;;;;5013952;28;19909;-58
2022/03/02 10:20:53;;;;;;;;;;;;;;;;;;5011543;28;20000;-58
2022/03/02 10:23:21;;;;;;;;;;;;;;;;;;4996395;28;19909;-58
2022/03/02 10:25:46;;;;;;;;;;;;;;;;;;5014001;28;19920;-58
2022/03/02 10:28:11;;;;;;;;;;;;;;;;;;5014015;28;19917;-58
2022/03/02 10:30:36;;;;;;;;;;;;;;;;;;4996421;28;20231;-58
2022/03/02 10:33:02;;;;;;;;;;;;;;;;;;4996252;28;19916;-58
2022/03/02 10:35:27;;;;;;;;;;;;;;;;;;5014702;28;19909;-59
2022/03/02 10:37:53;;;;;;;;;;;;;;;;;;5017429;28;19916;-58
2022/03/02 10:40:18;;;;;;;;;;;;;;;;;;5017586;28;19960;-58
2022/03/02 10:42:44;;;;;;;;;;;;;;;;;;4999886;28;20305;-58
2022/03/02 10:45:09;;;;;;;;;;;;;;;;;;5017823;28;19909;-58
2022/03/02 10:47:34;;;;;;;;;;;;;;;;;;5017598;28;19912;-59
2022/03/02 10:49:59;;;;;;;;;;;;;;;;;;5017887;28;19917;-61
2022/03/02 10:52:24;;;;;;;;;;;;;;;;;;5017435;28;19910;-59
2022/03/02 10:54:50;;;;;;;;;;;;;;;;;;5017166;28;20375;-59
2022/03/02 10:57:15;;;;;;;;;;;;;;;;;;4999859;28;19971;-58
2022/03/02 10:59:40;;;;;;;;;;;;;;;;;;5016921;28;19917;-59
2022/03/02 11:02:06;;;;;;;;;;;;;;;;;;5017110;28;19937;-58
2022/03/02 11:04:31;;;;;;;;;;;;;;;;;;4999780;28;20000;-59
2022/03/02 11:06:56;;;;;;;;;;;;;;;;;;5015035;28;19905;-60
2022/03/02 11:09:21;;;;;;;;;;;;;;;;;;5037065;28;20065;-58
2022/03/02 11:11:46;;;;;;;;;;;;;;;;;;5037000;28;19909;-58
2022/03/02 11:14:12;;;;;;;;;;;;;;;;;;5037164;28;19940;-58
2022/03/02 11:16:37;;;;;;;;;;;;;;;;;;5037258;28;19960;-58
2022/03/02 11:19:03;;;;;;;;;;;;;;;;;;5034663;28;19952;-57
2022/03/02 11:21:28;;;;;;;;;;;;;;;;;;5036971;28;19920;-57
2022/03/02 11:23:54;;;;;;;;;;;;;;;;;;5018937;28;19980;-57
2022/03/02 11:26:22;;;;;;;;;;;;;;;;;;5016404;28;20246;-56
2022/03/02 11:28:48;;;;;;;;;;;;;;;;;;5016518;28;19909;-56
2022/03/02 11:31:13;;;;;;;;;;;;;;;;;;5024676;28;19916;-56
2022/03/02 11:33:39;;;;;;;;;;;;;;;;;;4999265;28;19909;-56
2022/03/02 11:36:04;;;;;;;;;;;;;;;;;;4999536;28;19997;-57
2022/03/02 11:38:29;;;;;;;;;;;;;;;;;;5016713;28;20354;-57
2022/03/02 11:40:54;;;;;;;;;;;;;;;;;;5014527;28;19988;-57
2022/03/02 11:43:19;;;;;;;;;;;;;;;;;;5016719;28;20008;-57
2022/03/02 11:45:45;;;;;;;;;;;;;;;;;;5016816;28;19978;-58
2022/03/02 11:48:10;;;;;;;;;;;;;;;;;;5017084;28;19910;-58
2022/03/02 11:50:35;;;;;;;;;;;;;;;;;;5016255;28;19913;-58
2022/03/02 11:53:00;;;;;;;;;;;;;;;;;;5016459;28;19905;-58
2022/03/02 11:55:26;;;;;;;;;;;;;;;;;;5016102;28;19913;-59
2022/03/02 11:57:52;;;;;;;;;;;;;;;;;;5016104;28;19905;-58
2022/03/02 12:00:17;;;;;;;;;;;;;;;;;;4998714;28;20378;-58
2022/03/02 12:02:43;;;;;;;;;;;;;;;;;;4983126;28;20381;-58
2022/03/02 12:05:08;;;;;;;;;;;;;;;;;;5015957;28;19913;-58
2022/03/02 12:07:33;;;;;;;;;;;;;;;;;;4998353;28;19916;-58
2022/03/02 12:09:58;;;;;;;;;;;;;;;;;;5016188;28;19909;-58
2022/03/02 12:12:23;;;;;;;;;;;;;;;;;;4998564;28;19909;-58
2022/03/02 12:14:49;;;;;;;;;;;;;;;;;;5016280;28;19920;-58
2022/03/02 12:17:15;;;;;;;;;;;;;;;;;;5015664;28;19909;-58
2022/03/02 12:19:40;;;;;;;;;;;;;;;;;;5015650;28;19913;-57
2022/03/02 12:22:05;;;;;;;;;;;;;;;;;;5015703;28;20329;-58
2022/03/02 12:24:30;;;;;;;;;;;;;;;;;;5016068;28;19917;-57
2022/03/02 12:26:56;;;;;;;;;;;;;;;;;;5015790;28;19913;-58
2022/03/02 12:29:21;;;;;;;;;;;;;;;;;;5016071;28;19909;-57
2022/03/02 12:31:47;;;;;;;;;;;;;;;;;;5015962;28;19909;-57
2022/03/02 12:34:13;;;;;;;;;;;;;;;;;;4982732;28;19917;-57
2022/03/02 12:36:38;;;;;;;;;;;;;;;;;;5015328;28;19910;-57
2022/03/02 12:39:03;;;;;;;;;;;;;;;;;;5015260;28;20029;-57
2022/03/02 12:41:29;;;;;;;;;;;;;;;;;;5015504;28;20278;-57
2022/03/02 12:43:54;;;;;;;;;;;;;;;;;;5015439;28;19913;-57
2022/03/02 12:46:19;;;;;;;;;;;;;;;;;;5015760;28;19936;-58
2022/03/02 12:48:44;;;;;;;;;;;;;;;;;;5015418;28;19956;-58
2022/03/02 12:51:09;;;;;;;;;;;;;;;;;;5013082;28;19956;-57
2022/03/02 12:53:35;;;;;;;;;;;;;;;;;;5015626;28;19909;-57
2022/03/02 12:56:05;;;;;;;;;;;;;;;;;;5015495;28;19931;-58
2022/03/02 12:58:30;;;;;;;;;;;;;;;;;;4997790;28;20254;-57
2022/03/02 13:00:55;;;;;;;;;;;;;;;;;;5015055;28;20393;-57
2022/03/02 13:03:20;;;;;;;;;;;;;;;;;;5015080;28;19909;-57
2022/03/02 13:05:46;;;;;;;;;;;;;;;;;;5015165;28;19914;-57
2022/03/02 13:08:11;;;;;;;;;;;;;;;;;;4997523;28;19932;-57
2022/03/02 13:10:36;;;;;;;;;;;;;;;;;;4997563;28;19920;-57
2022/03/02 13:13:03;;;;;;;;;;;;;;;;;;4997280;28;19909;-57
2022/03/02 13:15:28;;;;;;;;;;;;;;;;;;5014609;28;19960;-57
2022/03/02 13:17:54;;;;;;;;;;;;;;;;;;5014737;28;19960;-57
2022/03/02 13:20:19;;;;;;;;;;;;;;;;;;5014616;28;20012;-57
2022/03/02 13:22:44;;;;;;;;;;;;;;;;;;5014898;28;20329;-57
2022/03/02 13:25:09;;;;;;;;;;;;;;;;;;5015087;28;19909;-57
2022/03/02 13:27:37;;;;;;;;;;;;;;;;;;5014466;28;19916;-57
2022/03/02 13:30:02;;;;;;;;;;;;;;;;;;5012527;28;20310;-57
2022/03/02 13:32:28;;;;;;;;;;;;;;;;;;5012226;28;20357;-57
2022/03/02 13:34:53;;;;;;;;;;;;;;;;;;5014952;28;19916;-56
2022/03/02 13:37:18;;;;;;;;;;;;;;;;;;5027503;28;19988;-57
2022/03/02 13:39:44;;;;;;;;;;;;;;;;;;5034251;28;20346;-57
2022/03/02 13:42:13;;;;;;;;;;;;;;;;;;5016418;28;19913;-56
2022/03/02 13:44:38;;;;;;;;;;;;;;;;;;5034248;28;20003;-57
2022/03/02 13:47:04;;;;;;;;;;;;;;;;;;5031432;28;19937;-57
2022/03/02 13:49:29;;;;;;;;;;;;;;;;;;5032711;28;19909;-57
2022/03/02 13:51:54;;;;;;;;;;;;;;;;;;5034209;28;19923;-56
2022/03/02 13:54:19;;;;;;;;;;;;;;;;;;5020266;28;19909;-56
2022/03/02 13:56:48;;;;;;;;;;;;;;;;;;5014447;28;20357;-57
2022/03/02 13:59:14;;;;;;;;;;;;;;;;;;5014142;28;20364;-57
2022/03/02 14:01:39;;;;;;;;;;;;;;;;;;5014613;28;19906;-57
2022/03/02 14:04:04;;;;;;;;;;;;;;;;;;4996453;28;19916;-57
2022/03/02 14:06:29;;;;;;;;;;;;;;;;;;4996535;28;19909;-57
2022/03/02 14:08:55;;;;;;;;;;;;;;;;;;5014093;28;20000;-57
2022/03/02 14:11:22;;;;;;;;;;;;;;;;;;5026794;28;20309;-57
2022/03/02 14:13:48;;;;;;;;;;;;;;;;;;5038411;28;20358;-57
2022/03/02 14:16:13;;;;;;;;;;;;;;;;;;5039114;28;20274;-56
2022/03/02 14:18:38;;;;;;;;;;;;;;;;;;5020342;28;20322;-57
2022/03/02 14:21:03;;;;;;;;;;;;;;;;;;5020428;28;19913;-57
2022/03/02 14:23:29;;;;;;;;;;;;;;;;;;5020542;28;19909;-57
2022/03/02 14:25:54;;;;;;;;;;;;;;;;;;5037653;28;19909;-57
2022/03/02 14:28:19;;;;;;;;;;;;;;;;;;5037504;28;19913;-57
2022/03/02 14:30:45;;;;;;;;;;;;;;;;;;5037748;28;19909;-57
2022/03/02 14:33:11;;;;;;;;;;;;;;;;;;5036460;28;20354;-57
2022/03/02 14:35:36;;;;;;;;;;;;;;;;;;5037982;28;19951;-57
2022/03/02 14:38:03;;;;;;;;;;;;;;;;;;5020014;28;19909;-57
2022/03/02 14:40:29;;;;;;;;;;;;;;;;;;5019878;28;19917;-57
2022/03/02 14:42:54;;;;;;;;;;;;;;;;;;5035283;28;19913;-56
2022/03/02 14:45:19;;;;;;;;;;;;;;;;;;5019819;28;19905;-56
2022/03/02 14:47:44;;;;;;;;;;;;;;;;;;5037501;28;20316;-56
2022/03/02 14:50:10;;;;;;;;;;;;;;;;;;5035953;28;20316;-56
2022/03/02 14:52:35;;;;;;;;;;;;;;;;;;5037803;28;19940;-56
2022/03/02 14:55:00;;;;;;;;;;;;;;;;;;5037578;28;20321;-56
2022/03/02 14:57:25;;;;;;;;;;;;;;;;;;5037596;28;20007;-56
2022/03/02 14:59:51;;;;;;;;;;;;;;;;;;5035574;28;19987;-57
2022/03/02 15:02:16;;;;;;;;;;;;;;;;;;5037261;28;19916;-56
2022/03/02 15:04:41;;;;;;;;;;;;;;;;;;5036924;28;19913;-57
2022/03/02 15:07:06;;;;;;;;;;;;;;;;;;5037313;28;19919;-57
2022/03/02 15:09:31;;;;;;;;;;;;;;;;;;5037384;28;19960;-57
2022/03/02 15:11:57;;;;;;;;;;;;;;;;;;5037042;28;19959;-57
2022/03/02 15:17:07;;;;;;;;;;;;;;;;;;5036549;28;19982;-56
2022/03/02 15:19:33;;;;;;;;;;;;;;;;;;5019080;28;19913;-56
2022/03/02 15:21:58;;;;;;;;;;;;;;;;;;5036402;28;20270;-56
2022/03/02 15:24:23;;;;;;;;;;;;;;;;;;5036619;28;19909;-56
2022/03/02 15:26:48;;;;;;;;;;;;;;;;;;5018978;28;19914;-56
2022/03/02 15:29:14;;;;;;;;;;;;;;;;;;5017518;28;19909;-56
2022/03/02 15:31:39;;;;;;;;;;;;;;;;;;5016948;28;19914;-57
2022/03/02 15:34:04;;;;;;;;;;;;;;;;;;5016893;28;19914;-57
2022/03/02 15:36:29;;;;;;;;;;;;;;;;;;5017077;28;20250;-57
2022/03/02 15:38:54;;;;;;;;;;;;;;;;;;5004471;28;20384;-57
2022/03/02 15:41:20;;;;;;;;;;;;;;;;;;5018975;28;19913;-57
2022/03/02 15:43:45;;;;;;;;;;;;;;;;;;5034330;28;19963;-57
2022/03/02 15:46:10;;;;;;;;;;;;;;;;;;5016879;28;19952;-57
2022/03/02 15:48:36;;;;;;;;;;;;;;;;;;4997322;28;20013;-57
2022/03/02 15:51:01;;;;;;;;;;;;;;;;;;5016270;28;19906;-58
2022/03/02 15:53:26;;;;;;;;;;;;;;;;;;5016236;28;20333;-57
2022/03/02 15:55:51;;;;;;;;;;;;;;;;;;5016495;28;19905;-57
2022/03/02 15:58:17;;;;;;;;;;;;;;;;;;5025343;28;19913;-57
2022/03/02 16:00:42;;;;;;;;;;;;;;;;;;5035804;28;19917;-56
2022/03/02 16:03:07;;;;;;;;;;;;;;;;;;5035315;28;19915;-57
2022/03/02 16:05:33;;;;;;;;;;;;;;;;;;5036093;28;19916;-56
2022/03/02 16:07:58;;;;;;;;;;;;;;;;;;5036051;28;19956;-56
2022/03/02 16:10:23;;;;;;;;;;;;;;;;;;5033725;28;19940;-56
2022/03/02 16:12:48;;;;;;;;;;;;;;;;;;5018248;28;19909;-58
2022/03/02 16:15:14;;;;;;;;;;;;;;;;;;5003954;28;19913;-56
2022/03/02 16:17:40;;;;;;;;;;;;;;;;;;5016097;28;19914;-56
2022/03/02 16:20:05;;;;;;;;;;;;;;;;;;5013616;28;19969;-56
2022/03/02 16:22:30;;;;;;;;;;;;;;;;;;5013536;28;19914;-56
2022/03/02 16:24:56;;;;;;;;;;;;;;;;;;5016057;28;20001;-57
2022/03/02 16:27:23;;;;;;;;;;;;;;;;;;5015890;28;19910;-57
2022/03/02 16:29:48;;;;;;;;;;;;;;;;;;4998289;28;19909;-57
2022/03/02 16:32:14;;;;;;;;;;;;;;;;;;4998007;28;19905;-57
2022/03/02 16:34:39;;;;;;;;;;;;;;;;;;5015024;28;20270;-57